Time;durP1;ratioP1;P1;durP2;ratioP2;P2;SDS_P1;SDS_P2;PMS_P1;PMS_P2;Temp;Humidity;BMP_temperature;BMP_pressure;BME280_temperature;BME280_humidity;BME280_pressure;Samples;Min_cycle;Max_cycle;Signal;HPM_P1;HPM_P2
2022/07/13 00:02:25;;;;;;;7.03;2.85;;;;;;;;;;10037977;28;20584;-67
2022/07/13 00:07:22;;;;;;;6.00;2.70;;;;;;;;;;10027603;28;20103;-67
2022/07/13 00:12:18;;;;;;;5.97;2.15;;;;;;;;;;10036321;28;20083;-67
2022/07/13 00:17:14;;;;;;;5.85;2.35;;;;;;;;;;10030727;28;20052;-68
2022/07/13 00:22:10;;;;;;;4.40;2.10;;;;;;;;;;10033894;28;20075;-67
2022/07/13 00:27:07;;;;;;;4.50;2.33;;;;;;;;;;10026773;28;20055;-67
2022/07/13 00:32:03;;;;;;;5.75;2.00;;;;;;;;;;10031012;28;20051;-67
2022/07/13 00:37:00;;;;;;;4.72;2.00;;;;;;;;;;10029087;28;20047;-67
2022/07/13 00:41:56;;;;;;;5.90;1.92;;;;;;;;;;10026692;28;20115;-66
2022/07/13 00:46:53;;;;;;;3.45;1.65;;;;;;;;;;10029915;28;20485;-66
2022/07/13 00:51:50;;;;;;;3.65;1.70;;;;;;;;;;10032340;28;20130;-67
2022/07/13 00:56:47;;;;;;;3.28;1.35;;;;;;;;;;10029029;28;20067;-65
2022/07/13 01:01:53;;;;;;;3.60;1.60;;;;;;;;;;10034222;28;20075;-67
2022/07/13 01:06:51;;;;;;;3.42;1.52;;;;;;;;;;10017413;28;20095;-68
2022/07/13 01:11:47;;;;;;;6.32;1.75;;;;;;;;;;10028052;28;20047;-66
2022/07/13 01:16:44;;;;;;;5.00;1.67;;;;;;;;;;10031513;28;20139;-66
2022/07/13 01:21:42;;;;;;;3.50;1.30;;;;;;;;;;10027920;28;20076;-64
2022/07/13 01:26:38;;;;;;;3.10;1.42;;;;;;;;;;10024076;28;20052;-65
2022/07/13 01:31:36;;;;;;;3.22;1.38;;;;;;;;;;10028902;28;20141;-65
2022/07/13 01:36:34;;;;;;;3.80;1.50;;;;;;;;;;10030051;28;20059;-64
2022/07/13 01:41:30;;;;;;;4.70;1.60;;;;;;;;;;10030103;28;20047;-66
2022/07/13 01:46:27;;;;;;;2.90;1.27;;;;;;;;;;10028417;28;20083;-66
2022/07/13 01:51:23;;;;;;;3.60;1.40;;;;;;;;;;10031399;28;20060;-67
2022/07/13 01:56:20;;;;;;;2.55;1.20;;;;;;;;;;10026148;28;20585;-67
2022/07/13 02:01:16;;;;;;;3.55;1.63;;;;;;;;;;10025240;28;20048;-65
2022/07/13 02:06:12;;;;;;;3.35;1.48;;;;;;;;;;10029809;28;20079;-66
2022/07/13 02:11:13;;;;;;;3.88;1.35;;;;;;;;;;10031266;28;20102;-68
2022/07/13 02:16:10;;;;;;;4.30;1.98;;;;;;;;;;10032131;28;20122;-69
2022/07/13 02:21:06;;;;;;;2.95;1.20;;;;;;;;;;10024885;28;20115;-68
2022/07/13 02:26:03;;;;;;;2.78;1.17;;;;;;;;;;10018608;28;20071;-67
2022/07/13 02:30:59;;;;;;;3.00;1.20;;;;;;;;;;10027187;28;20067;-70
2022/07/13 02:35:55;;;;;;;3.35;1.40;;;;;;;;;;10019516;28;20502;-70
2022/07/13 02:40:52;;;;;;;3.85;1.30;;;;;;;;;;10026444;28;20048;-67
2022/07/13 02:45:48;;;;;;;3.92;1.60;;;;;;;;;;10023499;28;20079;-66
2022/07/13 02:50:44;;;;;;;2.65;1.30;;;;;;;;;;10025536;28;20051;-66
2022/07/13 02:55:41;;;;;;;4.20;1.38;;;;;;;;;;10030265;28;20139;-66
2022/07/13 03:00:37;;;;;;;3.03;1.17;;;;;;;;;;10027401;28;20078;-68
2022/07/13 03:05:33;;;;;;;3.75;1.30;;;;;;;;;;10023220;28;20130;-68
2022/07/13 03:10:29;;;;;;;2.97;1.40;;;;;;;;;;10030174;28;20074;-64
2022/07/13 03:15:26;;;;;;;3.13;1.40;;;;;;;;;;10025935;28;20071;-65
2022/07/13 03:20:23;;;;;;;2.55;1.08;;;;;;;;;;10030464;28;20662;-67
2022/07/13 03:25:19;;;;;;;3.80;1.50;;;;;;;;;;10016775;28;20155;-67
2022/07/13 03:30:17;;;;;;;3.05;1.48;;;;;;;;;;10039177;28;20490;-69
2022/07/13 03:35:14;;;;;;;3.05;1.33;;;;;;;;;;10034448;28;20150;-68
2022/07/13 03:40:10;;;;;;;3.58;1.50;;;;;;;;;;10032030;28;20087;-68
2022/07/13 03:45:07;;;;;;;3.13;1.27;;;;;;;;;;10030438;28;20135;-68
2022/07/13 03:50:04;;;;;;;2.88;1.27;;;;;;;;;;10039190;28;20103;-68
2022/07/13 03:55:00;;;;;;;4.03;1.27;;;;;;;;;;10035458;29;20087;-69
2022/07/13 03:59:56;;;;;;;3.50;1.58;;;;;;;;;;10033259;28;20104;-70
2022/07/13 04:04:52;;;;;;;3.40;1.58;;;;;;;;;;10018610;28;20075;-70
2022/07/13 04:09:49;;;;;;;4.35;1.83;;;;;;;;;;10032634;28;20044;-68
2022/07/13 04:14:45;;;;;;;3.88;1.70;;;;;;;;;;10025302;28;20569;-68
2022/07/13 04:19:42;;;;;;;3.30;1.63;;;;;;;;;;10022855;28;20099;-68
2022/07/13 04:24:38;;;;;;;3.40;1.83;;;;;;;;;;10022411;28;20048;-68
2022/07/13 04:29:34;;;;;;;4.20;1.77;;;;;;;;;;10012128;28;20103;-68
2022/07/13 04:34:31;;;;;;;4.63;1.52;;;;;;;;;;10024366;28;20484;-70
2022/07/13 04:39:27;;;;;;;3.83;1.85;;;;;;;;;;10026515;28;20111;-71
2022/07/13 04:44:25;;;;;;;4.07;1.73;;;;;;;;;;10019342;28;20782;-69
2022/07/13 04:49:22;;;;;;;4.65;2.05;;;;;;;;;;10015354;28;20445;-69
2022/07/13 04:54:19;;;;;;;5.22;1.85;;;;;;;;;;10017123;28;20054;-69
2022/07/13 04:59:15;;;;;;;3.67;1.40;;;;;;;;;;10028568;28;20075;-69
2022/07/13 05:04:12;;;;;;;4.38;1.90;;;;;;;;;;10017211;28;20083;-69
2022/07/13 05:09:08;;;;;;;4.80;1.40;;;;;;;;;;10015456;28;20063;-69
2022/07/13 05:14:05;;;;;;;3.70;1.80;;;;;;;;;;10021497;28;20048;-68
2022/07/13 05:19:01;;;;;;;4.97;1.85;;;;;;;;;;10014118;28;20040;-68
2022/07/13 05:23:57;;;;;;;5.70;1.90;;;;;;;;;;10011300;28;20051;-68
2022/07/13 05:28:54;;;;;;;4.18;1.40;;;;;;;;;;10022613;28;20044;-68
2022/07/13 05:33:50;;;;;;;3.92;1.60;;;;;;;;;;10043723;28;20462;-68
2022/07/13 05:38:46;;;;;;;3.65;1.67;;;;;;;;;;10017661;28;20573;-68
2022/07/13 05:43:43;;;;;;;4.82;1.38;;;;;;;;;;10017992;28;20060;-68
2022/07/13 05:48:39;;;;;;;5.65;1.60;;;;;;;;;;10003347;28;20051;-68
2022/07/13 05:53:35;;;;;;;5.10;1.95;;;;;;;;;;10015431;28;20131;-68
2022/07/13 05:58:32;;;;;;;4.03;1.80;;;;;;;;;;10002928;28;20052;-68
2022/07/13 06:03:28;;;;;;;6.88;2.20;;;;;;;;;;10021405;28;20114;-68
2022/07/13 06:08:25;;;;;;;5.10;2.10;;;;;;;;;;10051446;28;20471;-69
2022/07/13 06:13:21;;;;;;;10.13;2.53;;;;;;;;;;10021795;28;20582;-68
2022/07/13 06:18:18;;;;;;;4.45;2.03;;;;;;;;;;10022215;28;20047;-68
2022/07/13 06:23:16;;;;;;;6.93;1.52;;;;;;;;;;10027824;28;20807;-68
2022/07/13 06:28:13;;;;;;;5.80;2.33;;;;;;;;;;10021825;28;20101;-68
2022/07/13 06:33:09;;;;;;;9.50;2.95;;;;;;;;;;10025120;28;20085;-68
2022/07/13 06:38:05;;;;;;;5.43;2.50;;;;;;;;;;10026005;28;20075;-68
2022/07/13 06:43:02;;;;;;;8.20;2.50;;;;;;;;;;10010121;28;20086;-68
2022/07/13 06:47:58;;;;;;;9.18;2.88;;;;;;;;;;10008673;28;20107;-68
2022/07/13 06:52:54;;;;;;;6.13;2.58;;;;;;;;;;10008656;28;20074;-68
2022/07/13 06:57:51;;;;;;;5.85;2.30;;;;;;;;;;10011402;28;20422;-68
2022/07/13 07:02:48;;;;;;;6.45;2.53;;;;;;;;;;10009638;28;20138;-68
2022/07/13 07:07:44;;;;;;;6.70;2.50;;;;;;;;;;10012459;28;20099;-68
2022/07/13 07:12:40;;;;;;;6.95;2.35;;;;;;;;;;10019107;28;20568;-68
2022/07/13 07:17:44;;;;;;;6.15;2.42;;;;;;;;;;10010939;28;20071;-68
2022/07/13 07:22:40;;;;;;;5.80;2.50;;;;;;;;;;10027053;28;20114;-68
2022/07/13 07:27:39;;;;;;;3.90;2.00;;;;;;;;;;10020921;28;20127;-68
2022/07/13 07:32:35;;;;;;;5.25;2.17;;;;;;;;;;10019626;28;20052;-68
2022/07/13 07:37:31;;;;;;;6.88;2.00;;;;;;;;;;10014128;28;20417;-68
2022/07/13 07:42:29;;;;;;;6.60;2.63;;;;;;;;;;10023461;28;20565;-68
2022/07/13 07:47:25;;;;;;;4.07;1.95;;;;;;;;;;10008215;28;20078;-68
2022/07/13 07:52:21;;;;;;;5.30;2.30;;;;;;;;;;10010189;28;20091;-68
2022/07/13 07:57:45;;;;;;;7.43;2.30;;;;;;;;;;10023724;28;20051;-68
2022/07/13 08:02:41;;;;;;;4.82;2.20;;;;;;;;;;10021503;28;20099;-68
2022/07/13 08:07:38;;;;;;;4.53;2.00;;;;;;;;;;10016884;28;20047;-68
2022/07/13 08:12:35;;;;;;;4.75;2.55;;;;;;;;;;10019952;28;20110;-67
2022/07/13 08:17:31;;;;;;;3.97;2.20;;;;;;;;;;10028841;28;20044;-68
2022/07/13 08:22:27;;;;;;;7.03;2.15;;;;;;;;;;10032698;28;20083;-67
2022/07/13 08:27:25;;;;;;;7.70;2.17;;;;;;;;;;10030232;28;20059;-67
2022/07/13 08:32:22;;;;;;;5.18;2.35;;;;;;;;;;10035215;28;20043;-68
2022/07/13 08:42:38;;;;;;;5.53;2.35;;;;;;;;;;10030890;28;20443;-67
2022/07/13 08:47:34;;;;;;;5.70;2.42;;;;;;;;;;10027122;28;21408;-68
2022/07/13 08:52:31;;;;;;;4.25;1.85;;;;;;;;;;10034556;28;20130;-68
2022/07/13 08:57:28;;;;;;;5.53;2.33;;;;;;;;;;10026182;28;20573;-68
2022/07/13 09:02:26;;;;;;;4.65;2.00;;;;;;;;;;10031099;28;20501;-68
2022/07/13 09:07:22;;;;;;;4.50;2.30;;;;;;;;;;10032464;28;20510;-67
2022/07/13 09:12:20;;;;;;;6.10;2.08;;;;;;;;;;10026309;28;20106;-68
2022/07/13 09:17:27;;;;;;;5.97;2.30;;;;;;;;;;10016032;28;20118;-67
2022/07/13 09:22:24;;;;;;;7.35;2.70;;;;;;;;;;10015700;28;20072;-68
2022/07/13 09:27:21;;;;;;;6.75;2.58;;;;;;;;;;10025170;28;20087;-68
2022/07/13 09:32:18;;;;;;;4.50;2.10;;;;;;;;;;10009244;28;20503;-68
2022/07/13 09:37:15;;;;;;;7.18;3.65;;;;;;;;;;10017910;28;20059;-67
2022/07/13 09:42:24;;;;;;;5.95;3.03;;;;;;;;;;10014737;28;20052;-68
2022/07/13 09:47:20;;;;;;;6.70;3.28;;;;;;;;;;10012413;28;20561;-68
2022/07/13 09:52:18;;;;;;;6.43;3.10;;;;;;;;;;10010988;28;20052;-68
2022/07/13 09:57:17;;;;;;;6.45;3.20;;;;;;;;;;10012359;28;20108;-67
2022/07/13 10:02:15;;;;;;;7.47;3.17;;;;;;;;;;10009421;28;20117;-68
2022/07/13 10:07:11;;;;;;;12.38;3.05;;;;;;;;;;10009592;28;20209;-67
2022/07/13 10:12:09;;;;;;;7.07;3.60;;;;;;;;;;10011670;28;20703;-68
2022/07/13 10:17:06;;;;;;;5.90;2.75;;;;;;;;;;10011071;28;20048;-67
2022/07/13 10:22:07;;;;;;;7.57;3.63;;;;;;;;;;10029876;28;20071;-69
2022/07/13 10:27:24;;;;;;;5.90;3.53;;;;;;;;;;10014233;28;20683;-69
2022/07/13 10:32:22;;;;;;;5.30;3.40;;;;;;;;;;10026309;28;20075;-68
2022/07/13 10:37:18;;;;;;;4.47;2.60;;;;;;;;;;10005907;28;20671;-68
2022/07/13 10:42:15;;;;;;;5.20;2.85;;;;;;;;;;10008982;28;20502;-68
2022/07/13 10:47:12;;;;;;;7.70;2.83;;;;;;;;;;10029545;28;20095;-68
2022/07/13 10:52:21;;;;;;;5.28;2.85;;;;;;;;;;10027280;28;20054;-69
2022/07/13 10:57:28;;;;;;;5.30;3.10;;;;;;;;;;10023966;28;20077;-69
2022/07/13 11:02:43;;;;;;;5.57;3.28;;;;;;;;;;10024430;28;20517;-68
2022/07/13 11:07:41;;;;;;;7.72;2.90;;;;;;;;;;10016163;28;20529;-68
2022/07/13 11:12:38;;;;;;;4.40;2.70;;;;;;;;;;10030572;28;20480;-69
2022/07/13 11:17:34;;;;;;;4.82;2.60;;;;;;;;;;10025655;28;20099;-69
2022/07/13 11:27:58;;;;;;;4.65;2.90;;;;;;;;;;10024384;28;20095;-68
2022/07/13 11:32:55;;;;;;;7.20;3.10;;;;;;;;;;10017049;28;20043;-69
2022/07/13 11:37:52;;;;;;;5.90;2.83;;;;;;;;;;10008824;28;20044;-69
2022/07/13 11:42:53;;;;;;;5.57;2.38;;;;;;;;;;10007262;28;20135;-69
2022/07/13 11:47:53;;;;;;;7.35;3.03;;;;;;;;;;10016807;28;20051;-69
2022/07/13 11:52:50;;;;;;;6.88;2.55;;;;;;;;;;10012916;28;20139;-69
2022/07/13 11:57:47;;;;;;;6.22;2.63;;;;;;;;;;10016197;28;20052;-69
2022/07/13 12:02:50;;;;;;;7.43;3.55;;;;;;;;;;10019064;28;20052;-69
2022/07/13 12:07:59;;;;;;;5.65;2.33;;;;;;;;;;10029493;28;20044;-69
2022/07/13 12:12:55;;;;;;;6.25;2.70;;;;;;;;;;10027641;28;20040;-69
2022/07/13 12:17:53;;;;;;;9.20;2.83;;;;;;;;;;10034224;28;20087;-69
2022/07/13 12:22:50;;;;;;;4.97;2.65;;;;;;;;;;10030563;28;20279;-69
2022/07/13 12:27:50;;;;;;;6.30;2.30;;;;;;;;;;10027896;28;20761;-69
2022/07/13 12:33:03;;;;;;;6.30;3.15;;;;;;;;;;10021810;28;20084;-69
2022/07/13 12:38:00;;;;;;;5.32;2.47;;;;;;;;;;10024120;28;20075;-69
2022/07/13 12:42:57;;;;;;;3.72;1.90;;;;;;;;;;10030659;28;20102;-69
2022/07/13 12:47:53;;;;;;;5.35;2.20;;;;;;;;;;10031087;28;20127;-69
2022/07/13 12:52:58;;;;;;;5.88;3.00;;;;;;;;;;10026882;28;20058;-69
2022/07/13 12:57:58;;;;;;;4.38;2.30;;;;;;;;;;10029401;28;20059;-69
2022/07/13 13:02:55;;;;;;;6.18;2.85;;;;;;;;;;10024358;28;20039;-69
2022/07/13 13:07:52;;;;;;;4.45;1.70;;;;;;;;;;10024467;28;20739;-70
2022/07/13 13:12:48;;;;;;;6.10;1.70;;;;;;;;;;10027494;28;20500;-69
2022/07/13 13:17:45;;;;;;;11.55;1.98;;;;;;;;;;10006856;28;20142;-69
2022/07/13 13:22:41;;;;;;;3.75;1.88;;;;;;;;;;10009769;28;20084;-69
2022/07/13 13:27:38;;;;;;;3.95;1.92;;;;;;;;;;10008253;28;20122;-69
2022/07/13 13:32:54;;;;;;;3.97;2.20;;;;;;;;;;10010299;28;20083;-69
2022/07/13 13:37:51;;;;;;;4.28;1.77;;;;;;;;;;10007958;28;20051;-69
2022/07/13 13:42:48;;;;;;;5.55;2.13;;;;;;;;;;10010439;28;20131;-69
2022/07/13 13:47:50;;;;;;;;;;;;;;;;;;10026983;28;20166;-69
2022/07/13 13:52:46;;;;;;;5.47;1.70;;;;;;;;;;10046761;28;19922;-69
2022/07/13 13:57:43;;;;;;;3.67;1.80;;;;;;;;;;10025058;28;20048;-69
2022/07/13 14:02:41;;;;;;;7.82;1.90;;;;;;;;;;10025428;28;20040;-69
2022/07/13 14:07:38;;;;;;;4.63;1.70;;;;;;;;;;10029337;28;20044;-69
2022/07/13 14:12:34;;;;;;;3.88;1.00;;;;;;;;;;10024930;28;20052;-69
2022/07/13 14:17:30;;;;;;;5.15;1.10;;;;;;;;;;10028165;28;20514;-69
2022/07/13 14:22:27;;;;;;;5.75;0.90;;;;;;;;;;10028932;28;20043;-69
2022/07/13 14:27:23;;;;;;;2.85;1.38;;;;;;;;;;10045642;28;20048;-69
2022/07/13 14:32:21;;;;;;;5.82;1.40;;;;;;;;;;10017425;28;20139;-69
2022/07/13 14:37:27;;;;;;;2.65;1.02;;;;;;;;;;10016161;28;20082;-69
2022/07/13 14:42:23;;;;;;;3.85;1.60;;;;;;;;;;10015250;28;20833;-69
2022/07/13 14:47:20;;;;;;;5.82;1.65;;;;;;;;;;10014145;28;20079;-69
2022/07/13 14:52:36;;;;;;;3.72;1.75;;;;;;;;;;10021181;28;20057;-69
2022/07/13 14:57:32;;;;;;;4.22;1.65;;;;;;;;;;10012436;28;20076;-69
2022/07/13 15:02:29;;;;;;;5.57;1.63;;;;;;;;;;10023299;28;20497;-69
2022/07/13 15:07:25;;;;;;;4.05;1.30;;;;;;;;;;10014160;28;20083;-69
2022/07/13 15:12:22;;;;;;;2.70;1.15;;;;;;;;;;10017791;28;20044;-69
2022/07/13 15:17:18;;;;;;;4.43;1.40;;;;;;;;;;10013451;28;20068;-69
2022/07/13 15:22:17;;;;;;;4.50;1.40;;;;;;;;;;10006605;28;20455;-69
2022/07/13 15:27:13;;;;;;;4.93;1.40;;;;;;;;;;10021781;28;20531;-69
2022/07/13 15:32:10;;;;;;;3.78;1.40;;;;;;;;;;10022413;28;20082;-69
2022/07/13 15:37:08;;;;;;;5.10;1.73;;;;;;;;;;10021756;28;20139;-69
2022/07/13 15:42:05;;;;;;;6.55;1.52;;;;;;;;;;10036631;28;20526;-69
2022/07/13 15:47:01;;;;;;;4.95;1.67;;;;;;;;;;10030815;28;20039;-69
2022/07/13 15:51:57;;;;;;;4.47;1.20;;;;;;;;;;10030192;28;20524;-69
2022/07/13 15:56:54;;;;;;;3.90;1.50;;;;;;;;;;10023754;28;20102;-69
2022/07/13 16:01:50;;;;;;;4.95;1.70;;;;;;;;;;10036031;28;20130;-69
2022/07/13 16:06:46;;;;;;;5.82;1.90;;;;;;;;;;10019966;28;20044;-69
2022/07/13 16:11:43;;;;;;;3.35;1.30;;;;;;;;;;10028762;28;20109;-69
2022/07/13 16:16:39;;;;;;;4.75;1.60;;;;;;;;;;10020426;28;20040;-69
2022/07/13 16:21:36;;;;;;;4.07;1.75;;;;;;;;;;10017151;28;20058;-69
2022/07/13 16:26:32;;;;;;;5.40;2.40;;;;;;;;;;10026638;28;20052;-69
2022/07/13 16:31:28;;;;;;;5.63;1.90;;;;;;;;;;10005393;28;20095;-69
2022/07/13 16:36:25;;;;;;;4.25;1.85;;;;;;;;;;10009101;28;20482;-69
2022/07/13 16:41:21;;;;;;;6.18;1.60;;;;;;;;;;10014749;28;20605;-69
2022/07/13 16:46:18;;;;;;;4.00;1.38;;;;;;;;;;10017247;28;20465;-69
2022/07/13 16:51:14;;;;;;;4.47;1.65;;;;;;;;;;10010223;28;20071;-69
2022/07/13 16:56:10;;;;;;;10.07;1.60;;;;;;;;;;10020427;28;20048;-69
2022/07/13 17:01:07;;;;;;;3.75;1.35;;;;;;;;;;10020175;28;20593;-70
2022/07/13 17:06:03;;;;;;;4.05;1.30;;;;;;;;;;10021646;28;20536;-70
2022/07/13 17:11:04;;;;;;;4.32;1.60;;;;;;;;;;10030533;28;20040;-69
2022/07/13 17:16:00;;;;;;;3.83;1.52;;;;;;;;;;10022681;28;20083;-69
2022/07/13 17:20:58;;;;;;;5.95;1.77;;;;;;;;;;10029064;28;20046;-69
2022/07/13 17:25:54;;;;;;;5.22;1.52;;;;;;;;;;10026896;28;20569;-69
2022/07/13 17:30:50;;;;;;;5.10;1.35;;;;;;;;;;10056543;28;20372;-69
2022/07/13 17:35:48;;;;;;;4.63;1.27;;;;;;;;;;10025899;28;20047;-69
2022/07/13 17:40:44;;;;;;;6.90;2.05;;;;;;;;;;10031767;28;20972;-69
2022/07/13 17:45:40;;;;;;;4.40;1.10;;;;;;;;;;10016611;28;20468;-69
2022/07/13 17:50:36;;;;;;;7.18;1.85;;;;;;;;;;10023521;28;20071;-69
2022/07/13 17:55:33;;;;;;;5.82;1.42;;;;;;;;;;10031794;28;20044;-69
2022/07/13 18:00:31;;;;;;;6.55;2.22;;;;;;;;;;10021003;28;20052;-69
2022/07/13 18:05:28;;;;;;;6.35;1.52;;;;;;;;;;10027768;28;20067;-69
2022/07/13 18:10:25;;;;;;;8.25;2.03;;;;;;;;;;10026631;28;20067;-68
2022/07/13 18:15:22;;;;;;;9.10;2.00;;;;;;;;;;10030325;28;20117;-70
2022/07/13 18:20:19;;;;;;;6.93;2.25;;;;;;;;;;10025420;28;20138;-68
2022/07/13 18:25:16;;;;;;;7.80;2.28;;;;;;;;;;10026009;28;20087;-69
2022/07/13 18:30:14;;;;;;;10.00;2.25;;;;;;;;;;10030776;28;20501;-69
2022/07/13 18:35:10;;;;;;;10.63;2.05;;;;;;;;;;10023832;28;20055;-68
2022/07/13 18:40:07;;;;;;;11.38;3.53;;;;;;;;;;10026227;28;20465;-69
2022/07/13 18:45:03;;;;;;;10.25;1.90;;;;;;;;;;10026454;28;20111;-68
2022/07/13 18:50:00;;;;;;;5.80;1.55;;;;;;;;;;10021665;29;20487;-69
2022/07/13 18:54:56;;;;;;;10.50;1.88;;;;;;;;;;10024719;28;20091;-68
2022/07/13 18:59:52;;;;;;;9.00;2.15;;;;;;;;;;10022174;28;20139;-69
2022/07/13 19:04:49;;;;;;;15.65;3.25;;;;;;;;;;10028733;28;20159;-68
2022/07/13 19:09:45;;;;;;;11.68;2.00;;;;;;;;;;10026703;28;20472;-69
2022/07/13 19:14:41;;;;;;;13.48;2.50;;;;;;;;;;10025571;28;20035;-68
2022/07/13 19:19:38;;;;;;;9.57;1.90;;;;;;;;;;10028629;28;20082;-69
2022/07/13 19:29:55;;;;;;;11.07;2.97;;;;;;;;;;10023386;28;20040;-69
2022/07/13 19:34:51;;;;;;;12.25;2.20;;;;;;;;;;10018468;28;20109;-69
2022/07/13 19:39:48;;;;;;;15.10;2.40;;;;;;;;;;10028928;28;20098;-69
2022/07/13 19:44:46;;;;;;;11.50;3.03;;;;;;;;;;10024073;28;20075;-69
2022/07/13 19:49:43;;;;;;;12.57;2.72;;;;;;;;;;10017660;28;20075;-69
2022/07/13 19:54:39;;;;;;;11.52;2.00;;;;;;;;;;10025014;28;20059;-69
2022/07/13 19:59:35;;;;;;;16.35;2.88;;;;;;;;;;10027047;28;20059;-69
2022/07/13 20:04:33;;;;;;;13.20;2.30;;;;;;;;;;10019581;28;20139;-69
2022/07/13 20:09:29;;;;;;;11.35;1.95;;;;;;;;;;10031305;28;20043;-69
2022/07/13 20:14:25;;;;;;;15.18;2.63;;;;;;;;;;10022165;28;20130;-69
2022/07/13 20:19:22;;;;;;;13.68;2.92;;;;;;;;;;10017948;28;20055;-69
2022/07/13 20:24:18;;;;;;;9.98;2.72;;;;;;;;;;10033740;28;20096;-68
2022/07/13 20:29:14;;;;;;;15.00;3.45;;;;;;;;;;10025455;28;20122;-67
2022/07/13 20:34:11;;;;;;;14.68;2.70;;;;;;;;;;10015213;28;20094;-65
2022/07/13 20:39:07;;;;;;;17.13;3.42;;;;;;;;;;10018916;28;20079;-67
2022/07/13 20:44:04;;;;;;;15.57;2.42;;;;;;;;;;10011154;28;20133;-67
2022/07/13 20:49:00;;;;;;;12.20;2.97;;;;;;;;;;10003654;28;20432;-67
2022/07/13 20:53:57;;;;;;;13.43;2.22;;;;;;;;;;10004481;28;20127;-67
2022/07/13 20:58:54;;;;;;;12.23;2.03;;;;;;;;;;10014265;28;21736;-67
2022/07/13 21:03:51;;;;;;;15.40;3.47;;;;;;;;;;10026709;28;20131;-68
2022/07/13 21:08:48;;;;;;;17.38;3.33;;;;;;;;;;10030950;28;20130;-68
2022/07/13 21:13:47;;;;;;;14.23;3.00;;;;;;;;;;10029778;28;20048;-68
2022/07/13 21:18:43;;;;;;;16.48;4.05;;;;;;;;;;10023472;28;20108;-68
2022/07/13 21:23:40;;;;;;;13.30;4.28;;;;;;;;;;10012978;28;20455;-68
2022/07/13 21:28:36;;;;;;;13.60;2.47;;;;;;;;;;10015747;28;20052;-69
2022/07/13 21:33:32;;;;;;;13.88;2.60;;;;;;;;;;10016301;28;20075;-68
2022/07/13 21:38:28;;;;;;;16.50;2.88;;;;;;;;;;10029201;28;20167;-68
2022/07/13 21:43:25;;;;;;;22.38;4.65;;;;;;;;;;10030963;28;20043;-68
2022/07/13 21:48:21;;;;;;;14.15;2.70;;;;;;;;;;10025222;28;20048;-68
2022/07/13 21:53:17;;;;;;;10.20;2.50;;;;;;;;;;10027181;28;20119;-68
2022/07/13 21:58:14;;;;;;;13.77;2.35;;;;;;;;;;10028457;28;20103;-68
2022/07/13 22:03:10;;;;;;;16.08;2.40;;;;;;;;;;10031262;28;20100;-68
2022/07/13 22:08:06;;;;;;;22.88;3.00;;;;;;;;;;10052257;28;20135;-68
2022/07/13 22:13:21;;;;;;;12.32;1.88;;;;;;;;;;10026876;28;20131;-68
2022/07/13 22:18:36;;;;;;;10.07;1.70;;;;;;;;;;10018379;28;20082;-68
2022/07/13 22:23:52;;;;;;;13.40;2.60;;;;;;;;;;10020896;28;20048;-70
2022/07/13 22:29:07;;;;;;;8.98;1.80;;;;;;;;;;10015369;28;20047;-70
2022/07/13 22:34:22;;;;;;;13.45;2.53;;;;;;;;;;10027278;28;20052;-70
2022/07/13 22:39:37;;;;;;;14.23;2.25;;;;;;;;;;10053976;28;20098;-67
2022/07/13 22:44:52;;;;;;;12.63;2.80;;;;;;;;;;10028251;28;20122;-67
2022/07/13 22:50:07;;;;;;;10.73;1.90;;;;;;;;;;10021849;28;20047;-67
2022/07/13 22:55:21;;;;;;;7.47;1.55;;;;;;;;;;10023182;28;20122;-68
2022/07/13 23:00:37;;;;;;;15.57;2.42;;;;;;;;;;10029546;28;20147;-67
2022/07/13 23:05:52;;;;;;;15.13;3.10;;;;;;;;;;10024550;28;20110;-67
2022/07/13 23:11:07;;;;;;;14.70;3.38;;;;;;;;;;10022462;28;20071;-69
2022/07/13 23:16:23;;;;;;;12.13;1.83;;;;;;;;;;10014889;28;20048;-68
2022/07/13 23:21:38;;;;;;;13.02;2.20;;;;;;;;;;10028584;28;20168;-69
2022/07/13 23:26:53;;;;;;;14.60;3.42;;;;;;;;;;10026160;28;20213;-68
2022/07/13 23:32:02;;;;;;;11.43;2.00;;;;;;;;;;10025939;28;20562;-69
2022/07/13 23:36:59;;;;;;;9.55;1.98;;;;;;;;;;10024220;28;20481;-69
2022/07/13 23:41:55;;;;;;;9.15;1.63;;;;;;;;;;10025214;28;20043;-69
2022/07/13 23:46:52;;;;;;;11.90;2.03;;;;;;;;;;10031072;28;20475;-69
2022/07/13 23:51:48;;;;;;;17.08;2.33;;;;;;;;;;10038625;28;20097;-70
2022/07/13 23:56:45;;;;;;;12.43;2.08;;;;;;;;;;10031935;28;20520;-67
